sensor_id;sensor_type;location;lat;lon;timestamp;P1;durP1;ratioP1;P2;durP2;ratioP2
78209;SDS011;67485;48.816;9.930;2023-08-17T00:01:34;6.80;;;2.80;;
78209;SDS011;67485;48.816;9.930;2023-08-17T00:04:00;4.45;;;2.60;;
78209;SDS011;67485;48.816;9.930;2023-08-17T00:06:25;3.73;;;1.90;;
78209;SDS011;67485;48.816;9.930;2023-08-17T00:08:51;7.97;;;2.40;;
78209;SDS011;67485;48.816;9.930;2023-08-17T00:11:17;3.97;;;2.03;;
78209;SDS011;67485;48.816;9.930;2023-08-17T00:13:42;6.90;;;2.60;;
78209;SDS011;67485;48.816;9.930;2023-08-17T00:16:08;4.27;;;2.60;;
78209;SDS011;67485;48.816;9.930;2023-08-17T00:18:33;7.13;;;2.47;;
78209;SDS011;67485;48.816;9.930;2023-08-17T00:20:59;4.50;;;2.10;;
78209;SDS011;67485;48.816;9.930;2023-08-17T00:23:25;7.05;;;2.75;;
78209;SDS011;67485;48.816;9.930;2023-08-17T00:25:50;4.33;;;3.00;;
78209;SDS011;67485;48.816;9.930;2023-08-17T00:28:16;7.73;;;2.10;;
78209;SDS011;67485;48.816;9.930;2023-08-17T00:30:42;5.60;;;2.78;;
78209;SDS011;67485;48.816;9.930;2023-08-17T00:33:08;6.35;;;2.58;;
78209;SDS011;67485;48.816;9.930;2023-08-17T00:35:34;6.00;;;2.70;;
78209;SDS011;67485;48.816;9.930;2023-08-17T00:37:59;3.70;;;2.33;;
78209;SDS011;67485;48.816;9.930;2023-08-17T00:40:25;5.63;;;2.20;;
78209;SDS011;67485;48.816;9.930;2023-08-17T00:42:51;6.70;;;2.53;;
78209;SDS011;67485;48.816;9.930;2023-08-17T00:45:17;4.88;;;2.10;;
78209;SDS011;67485;48.816;9.930;2023-08-17T00:47:44;6.57;;;2.60;;
78209;SDS011;67485;48.816;9.930;2023-08-17T00:50:10;3.97;;;1.95;;
78209;SDS011;67485;48.816;9.930;2023-08-17T00:52:36;6.65;;;2.47;;
78209;SDS011;67485;48.816;9.930;2023-08-17T00:55:03;3.40;;;2.45;;
78209;SDS011;67485;48.816;9.930;2023-08-17T00:57:31;4.20;;;2.88;;
78209;SDS011;67485;48.816;9.930;2023-08-17T00:59:58;4.67;;;2.73;;
78209;SDS011;67485;48.816;9.930;2023-08-17T01:02:24;3.95;;;2.47;;
78209;SDS011;67485;48.816;9.930;2023-08-17T01:04:50;6.72;;;2.50;;
78209;SDS011;67485;48.816;9.930;2023-08-17T01:07:17;3.70;;;2.70;;
78209;SDS011;67485;48.816;9.930;2023-08-17T01:09:42;5.23;;;3.00;;
78209;SDS011;67485;48.816;9.930;2023-08-17T01:12:13;7.57;;;3.80;;
78209;SDS011;67485;48.816;9.930;2023-08-17T01:17:17;8.53;;;2.97;;
78209;SDS011;67485;48.816;9.930;2023-08-17T01:19:47;5.85;;;3.10;;
78209;SDS011;67485;48.816;9.930;2023-08-17T01:22:16;5.55;;;2.53;;
78209;SDS011;67485;48.816;9.930;2023-08-17T01:24:46;6.18;;;3.10;;
78209;SDS011;67485;48.816;9.930;2023-08-17T01:27:11;4.30;;;3.07;;
78209;SDS011;67485;48.816;9.930;2023-08-17T01:29:37;5.82;;;2.85;;
78209;SDS011;67485;48.816;9.930;2023-08-17T01:35:01;8.52;;;3.35;;
78209;SDS011;67485;48.816;9.930;2023-08-17T01:37:33;6.75;;;2.90;;
78209;SDS011;67485;48.816;9.930;2023-08-17T01:40:01;4.90;;;2.80;;
78209;SDS011;67485;48.816;9.930;2023-08-17T01:42:26;6.20;;;3.00;;
78209;SDS011;67485;48.816;9.930;2023-08-17T01:44:53;4.55;;;2.65;;
78209;SDS011;67485;48.816;9.930;2023-08-17T01:47:20;3.95;;;2.90;;
78209;SDS011;67485;48.816;9.930;2023-08-17T01:49:47;3.77;;;2.87;;
78209;SDS011;67485;48.816;9.930;2023-08-17T01:52:13;5.65;;;2.72;;
78209;SDS011;67485;48.816;9.930;2023-08-17T01:54:39;5.57;;;3.25;;
78209;SDS011;67485;48.816;9.930;2023-08-17T01:57:05;4.30;;;2.77;;
78209;SDS011;67485;48.816;9.930;2023-08-17T01:59:30;7.83;;;3.10;;
78209;SDS011;67485;48.816;9.930;2023-08-17T02:01:56;4.57;;;2.70;;
78209;SDS011;67485;48.816;9.930;2023-08-17T02:04:21;8.70;;;2.67;;
78209;SDS011;67485;48.816;9.930;2023-08-17T02:06:47;5.32;;;2.63;;
78209;SDS011;67485;48.816;9.930;2023-08-17T02:09:13;6.50;;;2.90;;
78209;SDS011;67485;48.816;9.930;2023-08-17T02:11:38;6.33;;;2.50;;
78209;SDS011;67485;48.816;9.930;2023-08-17T02:14:04;5.23;;;2.90;;
78209;SDS011;67485;48.816;9.930;2023-08-17T02:16:30;5.68;;;3.05;;
78209;SDS011;67485;48.816;9.930;2023-08-17T02:18:55;4.57;;;3.27;;
78209;SDS011;67485;48.816;9.930;2023-08-17T02:21:23;3.67;;;2.58;;
78209;SDS011;67485;48.816;9.930;2023-08-17T02:23:49;4.23;;;2.70;;
78209;SDS011;67485;48.816;9.930;2023-08-17T02:26:14;5.43;;;2.60;;
78209;SDS011;67485;48.816;9.930;2023-08-17T02:28:40;4.90;;;3.47;;
78209;SDS011;67485;48.816;9.930;2023-08-17T02:31:05;5.60;;;2.63;;
78209;SDS011;67485;48.816;9.930;2023-08-17T02:33:31;5.70;;;2.90;;
78209;SDS011;67485;48.816;9.930;2023-08-17T02:35:58;4.15;;;2.50;;
78209;SDS011;67485;48.816;9.930;2023-08-17T02:38:24;4.30;;;3.07;;
78209;SDS011;67485;48.816;9.930;2023-08-17T02:40:50;5.60;;;2.80;;
78209;SDS011;67485;48.816;9.930;2023-08-17T02:43:16;5.33;;;2.70;;
78209;SDS011;67485;48.816;9.930;2023-08-17T02:45:43;3.75;;;2.70;;
78209;SDS011;67485;48.816;9.930;2023-08-17T02:48:08;4.78;;;2.70;;
78209;SDS011;67485;48.816;9.930;2023-08-17T02:50:34;3.20;;;2.50;;
78209;SDS011;67485;48.816;9.930;2023-08-17T02:53:00;4.70;;;2.50;;
78209;SDS011;67485;48.816;9.930;2023-08-17T02:55:27;3.43;;;2.57;;
78209;SDS011;67485;48.816;9.930;2023-08-17T02:57:52;6.55;;;2.58;;
78209;SDS011;67485;48.816;9.930;2023-08-17T03:00:18;5.03;;;2.50;;
78209;SDS011;67485;48.816;9.930;2023-08-17T03:02:44;4.45;;;2.53;;
78209;SDS011;67485;48.816;9.930;2023-08-17T03:05:10;4.07;;;2.80;;
78209;SDS011;67485;48.816;9.930;2023-08-17T03:07:35;4.40;;;3.03;;
78209;SDS011;67485;48.816;9.930;2023-08-17T03:10:01;7.17;;;3.07;;
78209;SDS011;67485;48.816;9.930;2023-08-17T03:12:27;5.68;;;2.83;;
78209;SDS011;67485;48.816;9.930;2023-08-17T03:14:53;4.13;;;2.67;;
78209;SDS011;67485;48.816;9.930;2023-08-17T03:17:18;5.57;;;2.38;;
78209;SDS011;67485;48.816;9.930;2023-08-17T03:19:44;8.03;;;2.40;;
78209;SDS011;67485;48.816;9.930;2023-08-17T03:22:09;5.53;;;2.10;;
78209;SDS011;67485;48.816;9.930;2023-08-17T03:24:35;8.70;;;2.40;;
78209;SDS011;67485;48.816;9.930;2023-08-17T03:27:01;3.72;;;2.55;;
78209;SDS011;67485;48.816;9.930;2023-08-17T03:29:27;8.23;;;2.73;;
78209;SDS011;67485;48.816;9.930;2023-08-17T03:31:54;5.97;;;3.10;;
78209;SDS011;67485;48.816;9.930;2023-08-17T03:34:19;7.80;;;3.35;;
78209;SDS011;67485;48.816;9.930;2023-08-17T03:36:45;3.60;;;2.87;;
78209;SDS011;67485;48.816;9.930;2023-08-17T03:39:11;5.13;;;3.53;;
78209;SDS011;67485;48.816;9.930;2023-08-17T03:41:36;5.07;;;3.33;;
78209;SDS011;67485;48.816;9.930;2023-08-17T03:44:03;5.13;;;3.55;;
78209;SDS011;67485;48.816;9.930;2023-08-17T03:46:31;5.85;;;3.72;;
78209;SDS011;67485;48.816;9.930;2023-08-17T03:48:57;6.63;;;4.10;;
78209;SDS011;67485;48.816;9.930;2023-08-17T03:51:22;8.27;;;4.35;;
78209;SDS011;67485;48.816;9.930;2023-08-17T03:53:48;9.30;;;4.10;;
78209;SDS011;67485;48.816;9.930;2023-08-17T03:56:13;10.85;;;3.90;;
78209;SDS011;67485;48.816;9.930;2023-08-17T03:58:40;6.90;;;3.20;;
78209;SDS011;67485;48.816;9.930;2023-08-17T04:01:06;4.72;;;2.92;;
78209;SDS011;67485;48.816;9.930;2023-08-17T04:03:33;21.67;;;3.10;;
78209;SDS011;67485;48.816;9.930;2023-08-17T04:06:03;25.57;;;3.43;;
78209;SDS011;67485;48.816;9.930;2023-08-17T04:08:29;9.88;;;2.88;;
78209;SDS011;67485;48.816;9.930;2023-08-17T04:10:55;6.22;;;3.22;;
78209;SDS011;67485;48.816;9.930;2023-08-17T04:13:22;8.83;;;3.33;;
78209;SDS011;67485;48.816;9.930;2023-08-17T04:15:47;5.03;;;3.03;;
78209;SDS011;67485;48.816;9.930;2023-08-17T04:18:13;10.30;;;3.50;;
78209;SDS011;67485;48.816;9.930;2023-08-17T04:20:38;5.40;;;2.97;;
78209;SDS011;67485;48.816;9.930;2023-08-17T04:23:04;5.47;;;3.27;;
78209;SDS011;67485;48.816;9.930;2023-08-17T04:25:30;6.57;;;2.72;;
78209;SDS011;67485;48.816;9.930;2023-08-17T04:27:56;5.17;;;3.07;;
78209;SDS011;67485;48.816;9.930;2023-08-17T04:30:23;4.07;;;3.10;;
78209;SDS011;67485;48.816;9.930;2023-08-17T04:32:54;7.35;;;3.22;;
78209;SDS011;67485;48.816;9.930;2023-08-17T04:35:20;4.40;;;3.10;;
78209;SDS011;67485;48.816;9.930;2023-08-17T04:37:46;4.13;;;3.33;;
78209;SDS011;67485;48.816;9.930;2023-08-17T04:40:13;4.53;;;3.13;;
78209;SDS011;67485;48.816;9.930;2023-08-17T04:42:39;5.00;;;2.95;;
78209;SDS011;67485;48.816;9.930;2023-08-17T04:45:05;3.60;;;2.83;;
78209;SDS011;67485;48.816;9.930;2023-08-17T04:47:33;5.17;;;2.87;;
78209;SDS011;67485;48.816;9.930;2023-08-17T04:49:59;5.20;;;2.92;;
78209;SDS011;67485;48.816;9.930;2023-08-17T04:52:24;4.97;;;3.00;;
78209;SDS011;67485;48.816;9.930;2023-08-17T04:54:50;8.13;;;3.50;;
78209;SDS011;67485;48.816;9.930;2023-08-17T04:57:16;8.32;;;3.80;;
78209;SDS011;67485;48.816;9.930;2023-08-17T04:59:43;5.57;;;3.80;;
78209;SDS011;67485;48.816;9.930;2023-08-17T05:02:09;6.10;;;3.30;;
78209;SDS011;67485;48.816;9.930;2023-08-17T05:04:35;5.70;;;3.87;;
78209;SDS011;67485;48.816;9.930;2023-08-17T05:07:02;4.80;;;3.30;;
78209;SDS011;67485;48.816;9.930;2023-08-17T05:09:28;4.38;;;3.10;;
78209;SDS011;67485;48.816;9.930;2023-08-17T05:11:53;4.35;;;3.28;;
78209;SDS011;67485;48.816;9.930;2023-08-17T05:14:19;4.30;;;3.30;;
78209;SDS011;67485;48.816;9.930;2023-08-17T05:16:45;4.20;;;3.00;;
78209;SDS011;67485;48.816;9.930;2023-08-17T05:19:11;4.30;;;3.00;;
78209;SDS011;67485;48.816;9.930;2023-08-17T05:21:36;6.05;;;3.30;;
78209;SDS011;67485;48.816;9.930;2023-08-17T05:24:02;4.60;;;3.00;;
78209;SDS011;67485;48.816;9.930;2023-08-17T05:26:28;6.53;;;3.40;;
78209;SDS011;67485;48.816;9.930;2023-08-17T05:28:53;4.67;;;3.30;;
78209;SDS011;67485;48.816;9.930;2023-08-17T05:31:19;3.83;;;3.08;;
78209;SDS011;67485;48.816;9.930;2023-08-17T05:33:47;4.88;;;3.30;;
78209;SDS011;67485;48.816;9.930;2023-08-17T05:36:12;4.23;;;3.20;;
78209;SDS011;67485;48.816;9.930;2023-08-17T05:38:38;4.55;;;2.80;;
78209;SDS011;67485;48.816;9.930;2023-08-17T05:41:04;4.20;;;3.00;;
78209;SDS011;67485;48.816;9.930;2023-08-17T05:43:31;4.65;;;3.03;;
78209;SDS011;67485;48.816;9.930;2023-08-17T05:45:57;4.10;;;2.45;;
78209;SDS011;67485;48.816;9.930;2023-08-17T05:48:26;5.10;;;3.17;;
78209;SDS011;67485;48.816;9.930;2023-08-17T05:50:52;3.45;;;2.72;;
78209;SDS011;67485;48.816;9.930;2023-08-17T05:53:17;3.90;;;3.00;;
78209;SDS011;67485;48.816;9.930;2023-08-17T05:55:43;6.03;;;3.30;;
78209;SDS011;67485;48.816;9.930;2023-08-17T05:58:09;5.10;;;3.23;;
78209;SDS011;67485;48.816;9.930;2023-08-17T06:00:34;4.25;;;3.17;;
78209;SDS011;67485;48.816;9.930;2023-08-17T06:03:00;4.50;;;3.43;;
78209;SDS011;67485;48.816;9.930;2023-08-17T06:05:27;4.03;;;3.20;;
78209;SDS011;67485;48.816;9.930;2023-08-17T06:07:58;4.82;;;2.67;;
78209;SDS011;67485;48.816;9.930;2023-08-17T06:10:24;3.35;;;2.90;;
78209;SDS011;67485;48.816;9.930;2023-08-17T06:12:53;6.50;;;3.33;;
78209;SDS011;67485;48.816;9.930;2023-08-17T06:15:19;4.80;;;3.17;;
78209;SDS011;67485;48.816;9.930;2023-08-17T06:17:45;4.30;;;3.03;;
78209;SDS011;67485;48.816;9.930;2023-08-17T06:20:11;4.37;;;3.20;;
78209;SDS011;67485;48.816;9.930;2023-08-17T06:22:37;4.97;;;3.47;;
78209;SDS011;67485;48.816;9.930;2023-08-17T06:25:04;5.63;;;3.33;;
78209;SDS011;67485;48.816;9.930;2023-08-17T06:27:31;5.80;;;4.00;;
78209;SDS011;67485;48.816;9.930;2023-08-17T06:29:57;5.50;;;3.50;;
78209;SDS011;67485;48.816;9.930;2023-08-17T06:32:22;3.88;;;3.08;;
78209;SDS011;67485;48.816;9.930;2023-08-17T06:34:48;4.63;;;3.13;;
78209;SDS011;67485;48.816;9.930;2023-08-17T06:37:14;4.03;;;3.30;;
78209;SDS011;67485;48.816;9.930;2023-08-17T06:39:40;4.53;;;3.20;;
78209;SDS011;67485;48.816;9.930;2023-08-17T06:42:05;4.37;;;3.20;;
78209;SDS011;67485;48.816;9.930;2023-08-17T06:44:31;4.40;;;3.10;;
78209;SDS011;67485;48.816;9.930;2023-08-17T06:46:57;4.47;;;3.10;;
78209;SDS011;67485;48.816;9.930;2023-08-17T06:49:24;5.63;;;3.45;;
78209;SDS011;67485;48.816;9.930;2023-08-17T06:51:50;4.45;;;3.25;;
78209;SDS011;67485;48.816;9.930;2023-08-17T06:54:16;5.07;;;3.73;;
78209;SDS011;67485;48.816;9.930;2023-08-17T06:56:41;4.57;;;3.13;;
78209;SDS011;67485;48.816;9.930;2023-08-17T06:59:07;4.90;;;3.10;;
78209;SDS011;67485;48.816;9.930;2023-08-17T07:01:32;5.03;;;3.73;;
78209;SDS011;67485;48.816;9.930;2023-08-17T07:03:58;3.90;;;2.85;;
78209;SDS011;67485;48.816;9.930;2023-08-17T07:06:24;5.37;;;3.23;;
78209;SDS011;67485;48.816;9.930;2023-08-17T07:08:50;4.68;;;3.40;;
78209;SDS011;67485;48.816;9.930;2023-08-17T07:11:17;5.25;;;4.10;;
78209;SDS011;67485;48.816;9.930;2023-08-17T07:13:44;5.88;;;3.83;;
78209;SDS011;67485;48.816;9.930;2023-08-17T07:16:10;6.53;;;3.93;;
78209;SDS011;67485;48.816;9.930;2023-08-17T07:18:35;5.05;;;3.33;;
78209;SDS011;67485;48.816;9.930;2023-08-17T07:21:01;10.80;;;4.13;;
78209;SDS011;67485;48.816;9.930;2023-08-17T07:23:27;7.57;;;4.20;;
78209;SDS011;67485;48.816;9.930;2023-08-17T07:25:52;6.47;;;4.27;;
78209;SDS011;67485;48.816;9.930;2023-08-17T07:28:18;4.85;;;3.72;;
78209;SDS011;67485;48.816;9.930;2023-08-17T07:30:44;10.10;;;3.80;;
78209;SDS011;67485;48.816;9.930;2023-08-17T07:33:09;5.95;;;3.65;;
78209;SDS011;67485;48.816;9.930;2023-08-17T07:35:35;4.70;;;2.50;;
78209;SDS011;67485;48.816;9.930;2023-08-17T07:38:01;5.38;;;3.80;;
78209;SDS011;67485;48.816;9.930;2023-08-17T07:40:26;4.43;;;3.20;;
78209;SDS011;67485;48.816;9.930;2023-08-17T07:42:52;4.20;;;3.10;;
78209;SDS011;67485;48.816;9.930;2023-08-17T07:45:18;5.68;;;3.05;;
78209;SDS011;67485;48.816;9.930;2023-08-17T07:47:43;5.57;;;3.63;;
78209;SDS011;67485;48.816;9.930;2023-08-17T07:50:09;4.45;;;3.25;;
78209;SDS011;67485;48.816;9.930;2023-08-17T07:52:35;5.47;;;3.80;;
78209;SDS011;67485;48.816;9.930;2023-08-17T07:55:00;5.85;;;3.80;;
78209;SDS011;67485;48.816;9.930;2023-08-17T07:57:26;5.00;;;3.07;;
78209;SDS011;67485;48.816;9.930;2023-08-17T07:59:52;4.88;;;3.33;;
78209;SDS011;67485;48.816;9.930;2023-08-17T08:02:19;5.33;;;3.30;;
78209;SDS011;67485;48.816;9.930;2023-08-17T08:04:44;7.88;;;3.97;;
78209;SDS011;67485;48.816;9.930;2023-08-17T08:07:10;6.17;;;3.93;;
78209;SDS011;67485;48.816;9.930;2023-08-17T08:09:36;5.63;;;3.17;;
78209;SDS011;67485;48.816;9.930;2023-08-17T08:12:02;3.57;;;2.83;;
78209;SDS011;67485;48.816;9.930;2023-08-17T08:14:27;4.45;;;3.42;;
78209;SDS011;67485;48.816;9.930;2023-08-17T08:16:53;4.78;;;3.40;;
78209;SDS011;67485;48.816;9.930;2023-08-17T08:19:19;5.80;;;3.30;;
78209;SDS011;67485;48.816;9.930;2023-08-17T08:21:44;7.95;;;4.13;;
78209;SDS011;67485;48.816;9.930;2023-08-17T08:24:10;6.50;;;3.17;;
78209;SDS011;67485;48.816;9.930;2023-08-17T08:26:35;5.20;;;3.70;;
78209;SDS011;67485;48.816;9.930;2023-08-17T08:29:01;5.03;;;3.63;;
78209;SDS011;67485;48.816;9.930;2023-08-17T08:31:27;6.43;;;3.93;;
78209;SDS011;67485;48.816;9.930;2023-08-17T08:33:52;4.50;;;3.80;;
78209;SDS011;67485;48.816;9.930;2023-08-17T08:36:18;3.80;;;3.23;;
78209;SDS011;67485;48.816;9.930;2023-08-17T08:38:44;4.90;;;3.28;;
78209;SDS011;67485;48.816;9.930;2023-08-17T08:41:11;7.53;;;3.63;;
78209;SDS011;67485;48.816;9.930;2023-08-17T08:43:37;5.85;;;3.60;;
78209;SDS011;67485;48.816;9.930;2023-08-17T08:46:04;5.43;;;3.47;;
78209;SDS011;67485;48.816;9.930;2023-08-17T08:48:31;5.43;;;3.42;;
78209;SDS011;67485;48.816;9.930;2023-08-17T08:50:59;5.30;;;3.55;;
78209;SDS011;67485;48.816;9.930;2023-08-17T08:53:32;4.50;;;3.20;;
78209;SDS011;67485;48.816;9.930;2023-08-17T08:56:03;4.70;;;3.40;;
78209;SDS011;67485;48.816;9.930;2023-08-17T08:58:32;3.80;;;3.10;;
78209;SDS011;67485;48.816;9.930;2023-08-17T09:00:58;5.93;;;3.45;;
78209;SDS011;67485;48.816;9.930;2023-08-17T09:03:28;5.32;;;3.35;;
78209;SDS011;67485;48.816;9.930;2023-08-17T09:05:58;6.70;;;3.30;;
78209;SDS011;67485;48.816;9.930;2023-08-17T09:08:26;8.23;;;3.85;;
78209;SDS011;67485;48.816;9.930;2023-08-17T09:10:53;5.00;;;3.38;;
78209;SDS011;67485;48.816;9.930;2023-08-17T09:13:19;5.77;;;3.70;;
78209;SDS011;67485;48.816;9.930;2023-08-17T09:15:45;5.40;;;4.07;;
78209;SDS011;67485;48.816;9.930;2023-08-17T09:18:11;8.37;;;3.63;;
78209;SDS011;67485;48.816;9.930;2023-08-17T09:20:40;6.72;;;3.47;;
78209;SDS011;67485;48.816;9.930;2023-08-17T09:23:14;6.43;;;4.45;;
78209;SDS011;67485;48.816;9.930;2023-08-17T09:25:44;5.53;;;3.85;;
78209;SDS011;67485;48.816;9.930;2023-08-17T09:28:14;5.25;;;4.45;;
78209;SDS011;67485;48.816;9.930;2023-08-17T09:30:53;5.20;;;4.07;;
78209;SDS011;67485;48.816;9.930;2023-08-17T09:33:27;5.78;;;3.95;;
78209;SDS011;67485;48.816;9.930;2023-08-17T09:35:58;4.50;;;3.50;;
78209;SDS011;67485;48.816;9.930;2023-08-17T09:38:28;4.75;;;3.70;;
78209;SDS011;67485;48.816;9.930;2023-08-17T09:40:54;6.65;;;4.38;;
78209;SDS011;67485;48.816;9.930;2023-08-17T09:43:20;4.90;;;4.20;;
78209;SDS011;67485;48.816;9.930;2023-08-17T09:45:46;5.07;;;3.67;;
78209;SDS011;67485;48.816;9.930;2023-08-17T09:48:18;5.50;;;4.38;;
78209;SDS011;67485;48.816;9.930;2023-08-17T09:50:47;4.95;;;4.03;;
78209;SDS011;67485;48.816;9.930;2023-08-17T09:53:14;4.70;;;3.80;;
78209;SDS011;67485;48.816;9.930;2023-08-17T09:55:42;4.78;;;4.03;;
78209;SDS011;67485;48.816;9.930;2023-08-17T09:58:09;6.80;;;4.50;;
78209;SDS011;67485;48.816;9.930;2023-08-17T10:00:48;5.38;;;3.78;;
78209;SDS011;67485;48.816;9.930;2023-08-17T10:03:16;6.50;;;4.25;;
78209;SDS011;67485;48.816;9.930;2023-08-17T10:05:47;6.37;;;4.00;;
78209;SDS011;67485;48.816;9.930;2023-08-17T10:08:18;6.72;;;4.15;;
78209;SDS011;67485;48.816;9.930;2023-08-17T10:10:55;5.10;;;3.75;;
78209;SDS011;67485;48.816;9.930;2023-08-17T10:19:00;5.57;;;4.30;;
78209;SDS011;67485;48.816;9.930;2023-08-17T10:24:09;6.22;;;4.40;;
78209;SDS011;67485;48.816;9.930;2023-08-17T10:26:36;6.65;;;4.38;;
78209;SDS011;67485;48.816;9.930;2023-08-17T10:29:02;9.43;;;4.50;;
78209;SDS011;67485;48.816;9.930;2023-08-17T10:31:29;9.82;;;4.53;;
78209;SDS011;67485;48.816;9.930;2023-08-17T10:33:59;6.32;;;3.80;;
78209;SDS011;67485;48.816;9.930;2023-08-17T10:36:26;7.65;;;4.90;;
78209;SDS011;67485;48.816;9.930;2023-08-17T10:41:48;5.45;;;4.40;;
78209;SDS011;67485;48.816;9.930;2023-08-17T10:44:16;8.88;;;5.57;;
78209;SDS011;67485;48.816;9.930;2023-08-17T10:46:43;6.68;;;4.60;;
78209;SDS011;67485;48.816;9.930;2023-08-17T10:49:25;6.30;;;4.65;;
78209;SDS011;67485;48.816;9.930;2023-08-17T10:52:02;5.87;;;4.80;;
78209;SDS011;67485;48.816;9.930;2023-08-17T10:54:38;5.10;;;4.18;;
78209;SDS011;67485;48.816;9.930;2023-08-17T11:02:58;5.65;;;4.55;;
78209;SDS011;67485;48.816;9.930;2023-08-17T11:08:04;9.07;;;4.63;;
78209;SDS011;67485;48.816;9.930;2023-08-17T11:10:31;7.47;;;4.45;;
78209;SDS011;67485;48.816;9.930;2023-08-17T11:12:58;5.97;;;4.35;;
78209;SDS011;67485;48.816;9.930;2023-08-17T11:15:37;5.72;;;4.50;;
78209;SDS011;67485;48.816;9.930;2023-08-17T11:18:03;5.53;;;4.73;;
78209;SDS011;67485;48.816;9.930;2023-08-17T11:20:30;5.10;;;4.50;;
78209;SDS011;67485;48.816;9.930;2023-08-17T11:23:00;9.38;;;4.63;;
78209;SDS011;67485;48.816;9.930;2023-08-17T11:25:27;5.72;;;4.57;;
78209;SDS011;67485;48.816;9.930;2023-08-17T11:27:55;5.70;;;5.07;;
78209;SDS011;67485;48.816;9.930;2023-08-17T11:30:21;8.77;;;4.50;;
78209;SDS011;67485;48.816;9.930;2023-08-17T11:32:51;7.05;;;5.55;;
78209;SDS011;67485;48.816;9.930;2023-08-17T11:35:19;5.65;;;4.60;;
78209;SDS011;67485;48.816;9.930;2023-08-17T11:37:48;8.23;;;4.55;;
78209;SDS011;67485;48.816;9.930;2023-08-17T11:40:14;7.13;;;4.68;;
78209;SDS011;67485;48.816;9.930;2023-08-17T11:42:41;9.50;;;4.37;;
78209;SDS011;67485;48.816;9.930;2023-08-17T11:45:07;9.10;;;4.60;;
78209;SDS011;67485;48.816;9.930;2023-08-17T11:47:40;7.82;;;4.93;;
78209;SDS011;67485;48.816;9.930;2023-08-17T11:50:09;8.57;;;4.75;;
78209;SDS011;67485;48.816;9.930;2023-08-17T11:52:36;6.03;;;5.32;;
78209;SDS011;67485;48.816;9.930;2023-08-17T11:55:03;5.33;;;4.50;;
78209;SDS011;67485;48.816;9.930;2023-08-17T11:57:32;7.40;;;4.28;;
78209;SDS011;67485;48.816;9.930;2023-08-17T11:59:59;8.13;;;5.30;;
78209;SDS011;67485;48.816;9.930;2023-08-17T12:02:26;6.75;;;4.80;;
78209;SDS011;67485;48.816;9.930;2023-08-17T12:04:52;8.13;;;5.10;;
78209;SDS011;67485;48.816;9.930;2023-08-17T12:07:21;9.03;;;4.80;;
78209;SDS011;67485;48.816;9.930;2023-08-17T12:09:48;8.45;;;4.80;;
78209;SDS011;67485;48.816;9.930;2023-08-17T12:12:36;8.45;;;5.28;;
78209;SDS011;67485;48.816;9.930;2023-08-17T12:15:03;6.03;;;4.90;;
78209;SDS011;67485;48.816;9.930;2023-08-17T12:17:29;6.35;;;5.07;;
78209;SDS011;67485;48.816;9.930;2023-08-17T12:19:54;6.80;;;5.23;;
78209;SDS011;67485;48.816;9.930;2023-08-17T12:22:23;6.93;;;4.88;;
78209;SDS011;67485;48.816;9.930;2023-08-17T12:24:52;6.82;;;4.53;;
78209;SDS011;67485;48.816;9.930;2023-08-17T12:27:18;5.27;;;4.77;;
78209;SDS011;67485;48.816;9.930;2023-08-17T12:29:46;6.80;;;4.78;;
78209;SDS011;67485;48.816;9.930;2023-08-17T12:32:16;6.18;;;4.45;;
78209;SDS011;67485;48.816;9.930;2023-08-17T12:34:43;6.68;;;4.93;;
78209;SDS011;67485;48.816;9.930;2023-08-17T12:37:09;6.80;;;4.53;;
78209;SDS011;67485;48.816;9.930;2023-08-17T12:39:35;6.40;;;4.60;;
78209;SDS011;67485;48.816;9.930;2023-08-17T12:42:02;8.15;;;5.15;;
78209;SDS011;67485;48.816;9.930;2023-08-17T12:44:28;5.88;;;4.20;;
78209;SDS011;67485;48.816;9.930;2023-08-17T12:46:54;6.77;;;5.03;;
78209;SDS011;67485;48.816;9.930;2023-08-17T12:49:20;6.00;;;5.05;;
78209;SDS011;67485;48.816;9.930;2023-08-17T12:51:48;6.40;;;5.22;;
78209;SDS011;67485;48.816;9.930;2023-08-17T12:54:14;9.13;;;4.67;;
78209;SDS011;67485;48.816;9.930;2023-08-17T12:56:39;5.57;;;4.65;;
78209;SDS011;67485;48.816;9.930;2023-08-17T12:59:05;6.43;;;5.27;;
78209;SDS011;67485;48.816;9.930;2023-08-17T13:01:31;7.40;;;5.20;;
78209;SDS011;67485;48.816;9.930;2023-08-17T13:03:56;6.97;;;5.37;;
78209;SDS011;67485;48.816;9.930;2023-08-17T13:06:22;7.45;;;5.30;;
78209;SDS011;67485;48.816;9.930;2023-08-17T13:08:48;6.10;;;5.03;;
78209;SDS011;67485;48.816;9.930;2023-08-17T13:11:13;6.38;;;4.90;;
78209;SDS011;67485;48.816;9.930;2023-08-17T13:13:42;5.53;;;4.43;;
78209;SDS011;67485;48.816;9.930;2023-08-17T13:16:07;7.95;;;4.82;;
78209;SDS011;67485;48.816;9.930;2023-08-17T13:18:37;10.45;;;5.55;;
78209;SDS011;67485;48.816;9.930;2023-08-17T13:21:02;5.67;;;4.77;;
78209;SDS011;67485;48.816;9.930;2023-08-17T13:23:28;6.07;;;5.10;;
78209;SDS011;67485;48.816;9.930;2023-08-17T13:25:54;7.27;;;5.43;;
78209;SDS011;67485;48.816;9.930;2023-08-17T13:28:19;6.90;;;4.40;;
78209;SDS011;67485;48.816;9.930;2023-08-17T13:30:45;5.97;;;4.70;;
78209;SDS011;67485;48.816;9.930;2023-08-17T13:33:11;6.53;;;4.32;;
78209;SDS011;67485;48.816;9.930;2023-08-17T13:35:43;6.75;;;4.40;;
78209;SDS011;67485;48.816;9.930;2023-08-17T13:38:09;5.50;;;3.87;;
78209;SDS011;67485;48.816;9.930;2023-08-17T13:40:35;4.97;;;4.30;;
78209;SDS011;67485;48.816;9.930;2023-08-17T13:43:04;5.78;;;3.97;;
78209;SDS011;67485;48.816;9.930;2023-08-17T13:45:37;5.80;;;3.58;;
78209;SDS011;67485;48.816;9.930;2023-08-17T13:48:04;5.03;;;3.83;;
78209;SDS011;67485;48.816;9.930;2023-08-17T13:50:30;6.38;;;4.10;;
78209;SDS011;67485;48.816;9.930;2023-08-17T13:52:56;5.38;;;3.88;;
78209;SDS011;67485;48.816;9.930;2023-08-17T13:55:25;5.13;;;3.97;;
78209;SDS011;67485;48.816;9.930;2023-08-17T13:57:52;6.88;;;4.30;;
78209;SDS011;67485;48.816;9.930;2023-08-17T14:00:21;6.68;;;3.80;;
78209;SDS011;67485;48.816;9.930;2023-08-17T14:02:47;5.97;;;3.90;;
78209;SDS011;67485;48.816;9.930;2023-08-17T14:05:13;6.87;;;4.40;;
78209;SDS011;67485;48.816;9.930;2023-08-17T14:07:38;5.60;;;4.20;;
78209;SDS011;67485;48.816;9.930;2023-08-17T14:10:04;8.00;;;4.40;;
78209;SDS011;67485;48.816;9.930;2023-08-17T14:12:30;7.78;;;4.50;;
78209;SDS011;67485;48.816;9.930;2023-08-17T14:14:56;7.03;;;5.03;;
78209;SDS011;67485;48.816;9.930;2023-08-17T14:17:22;6.53;;;4.80;;
78209;SDS011;67485;48.816;9.930;2023-08-17T14:19:53;7.70;;;4.53;;
78209;SDS011;67485;48.816;9.930;2023-08-17T14:22:20;6.47;;;4.45;;
78209;SDS011;67485;48.816;9.930;2023-08-17T14:24:45;6.73;;;4.50;;
78209;SDS011;67485;48.816;9.930;2023-08-17T14:27:14;6.35;;;4.75;;
78209;SDS011;67485;48.816;9.930;2023-08-17T14:29:39;7.63;;;4.70;;
78209;SDS011;67485;48.816;9.930;2023-08-17T14:32:06;7.25;;;4.72;;
78209;SDS011;67485;48.816;9.930;2023-08-17T14:34:32;6.20;;;4.90;;
78209;SDS011;67485;48.816;9.930;2023-08-17T14:36:57;7.82;;;5.15;;
78209;SDS011;67485;48.816;9.930;2023-08-17T14:39:23;8.43;;;5.33;;
78209;SDS011;67485;48.816;9.930;2023-08-17T14:41:49;7.35;;;4.82;;
78209;SDS011;67485;48.816;9.930;2023-08-17T14:44:14;9.10;;;5.07;;
78209;SDS011;67485;48.816;9.930;2023-08-17T14:46:42;7.43;;;5.22;;
78209;SDS011;67485;48.816;9.930;2023-08-17T14:49:08;8.98;;;5.15;;
78209;SDS011;67485;48.816;9.930;2023-08-17T14:51:37;9.10;;;5.20;;
78209;SDS011;67485;48.816;9.930;2023-08-17T14:54:04;9.27;;;6.32;;
78209;SDS011;67485;48.816;9.930;2023-08-17T14:56:30;12.07;;;6.88;;
78209;SDS011;67485;48.816;9.930;2023-08-17T14:58:55;11.07;;;6.00;;
78209;SDS011;67485;48.816;9.930;2023-08-17T15:01:21;10.07;;;6.85;;
78209;SDS011;67485;48.816;9.930;2023-08-17T15:03:46;10.03;;;6.10;;
78209;SDS011;67485;48.816;9.930;2023-08-17T15:06:12;7.15;;;6.03;;
78209;SDS011;67485;48.816;9.930;2023-08-17T15:08:40;8.18;;;6.35;;
78209;SDS011;67485;48.816;9.930;2023-08-17T15:11:06;9.43;;;6.37;;